Time;durP1;ratioP1;P1;durP2;ratioP2;P2;SDS_P1;SDS_P2;PMS_P1;PMS_P2;Temp;Humidity;BMP_temperature;BMP_pressure;BME280_temperature;BME280_humidity;BME280_pressure;Samples;Min_cycle;Max_cycle;Signal;HPM_P1;HPM_P2
2022/04/20 00:02:12;;;;;;;8.32;4.78;;;9.00;85.40;;;;;;5014344;28;20383;-43
2022/04/20 00:04:39;;;;;;;7.13;4.47;;;8.90;85.40;;;;;;5014826;28;20501;-43
2022/04/20 00:07:09;;;;;;;8.38;4.50;;;8.90;85.30;;;;;;5012162;28;20056;-43
2022/04/20 00:09:35;;;;;;;15.70;4.80;;;8.90;85.20;;;;;;5014356;28;20061;-43
2022/04/20 00:12:02;;;;;;;8.95;4.43;;;8.80;85.00;;;;;;5008380;28;20069;-43
2022/04/20 00:14:29;;;;;;;8.18;5.10;;;8.80;84.90;;;;;;5014891;28;20441;-42
2022/04/20 00:16:55;;;;;;;6.60;4.53;;;8.80;85.00;;;;;;5014913;28;20041;-43
2022/04/20 00:19:23;;;;;;;8.70;4.93;;;8.80;84.90;;;;;;5015341;28;20052;-44
2022/04/20 00:21:50;;;;;;;8.13;4.07;;;8.70;85.00;;;;;;5013868;28;20072;-45
2022/04/20 00:24:18;;;;;;;7.07;4.88;;;8.70;84.90;;;;;;5014190;28;20286;-45
2022/04/20 00:26:45;;;;;;;7.55;5.10;;;8.70;84.90;;;;;;5004165;28;20060;-44
2022/04/20 00:29:11;;;;;;;6.32;4.70;;;8.70;84.90;;;;;;5009013;28;20113;-45
2022/04/20 00:31:38;;;;;;;6.88;4.68;;;8.60;84.80;;;;;;5012561;28;20136;-44
2022/04/20 00:34:05;;;;;;;5.95;4.93;;;8.60;84.70;;;;;;5014120;28;20046;-44
2022/04/20 00:36:31;;;;;;;7.07;4.38;;;8.60;84.60;;;;;;5013750;28;20052;-45
2022/04/20 00:38:58;;;;;;;6.45;4.80;;;8.60;84.50;;;;;;5014528;28;20343;-44
2022/04/20 00:41:26;;;;;;;8.77;4.93;;;8.60;84.60;;;;;;5013181;28;20125;-43
2022/04/20 00:43:53;;;;;;;8.55;5.15;;;8.50;84.40;;;;;;5013991;28;20470;-43
2022/04/20 00:46:20;;;;;;;7.05;5.25;;;8.50;84.50;;;;;;5014067;28;20390;-43
2022/04/20 00:48:47;;;;;;;10.10;5.55;;;8.50;84.40;;;;;;5014767;28;20045;-44
2022/04/20 00:51:16;;;;;;;8.82;4.90;;;8.50;84.70;;;;;;5010073;28;20050;-44
2022/04/20 00:53:43;;;;;;;12.88;5.47;;;8.40;84.50;;;;;;5010974;28;20409;-43
2022/04/20 00:56:10;;;;;;;7.75;5.20;;;8.40;84.90;;;;;;5015430;28;20053;-43
2022/04/20 00:58:38;;;;;;;6.40;4.95;;;8.40;85.20;;;;;;5005096;28;20054;-43
2022/04/20 01:01:05;;;;;;;6.88;4.60;;;8.30;85.30;;;;;;5011899;28;20068;-43
2022/04/20 01:03:32;;;;;;;8.65;5.05;;;8.30;85.40;;;;;;5014052;28;20409;-44
2022/04/20 01:05:58;;;;;;;10.48;4.95;;;8.30;85.50;;;;;;5010203;28;20046;-43
2022/04/20 01:08:29;;;;;;;6.47;4.90;;;8.20;85.70;;;;;;5012130;28;20046;-43
2022/04/20 01:10:56;;;;;;;11.97;5.50;;;8.20;86.00;;;;;;5013250;28;20071;-44
2022/04/20 01:13:22;;;;;;;11.77;5.32;;;8.20;85.90;;;;;;5012847;28;20050;-44
2022/04/20 01:15:51;;;;;;;8.23;5.13;;;8.10;86.20;;;;;;5014330;28;20050;-43
2022/04/20 01:18:17;;;;;;;9.05;5.88;;;8.10;86.20;;;;;;5009014;28;20044;-43
2022/04/20 01:20:45;;;;;;;9.98;5.25;;;8.10;86.30;;;;;;5014516;28;20050;-43
2022/04/20 01:23:12;;;;;;;10.05;5.45;;;8.10;86.60;;;;;;5012841;28;20052;-43
2022/04/20 01:25:39;;;;;;;10.68;6.13;;;8.10;86.70;;;;;;5012861;28;20406;-43
2022/04/20 01:28:06;;;;;;;16.48;5.40;;;8.00;87.20;;;;;;5013198;28;20052;-43
2022/04/20 01:30:33;;;;;;;8.57;5.30;;;8.00;87.80;;;;;;5013431;28;20050;-43
2022/04/20 01:33:00;;;;;;;9.15;6.05;;;8.00;87.90;;;;;;5013219;28;20125;-43
2022/04/20 01:35:26;;;;;;;10.23;5.47;;;7.90;87.70;;;;;;5005936;28;20052;-44
2022/04/20 01:37:54;;;;;;;10.50;5.40;;;7.90;88.00;;;;;;5012322;28;20136;-44
2022/04/20 01:40:21;;;;;;;9.63;5.60;;;7.90;87.80;;;;;;5011975;28;20410;-43
2022/04/20 01:42:48;;;;;;;8.88;5.80;;;7.90;87.90;;;;;;5005579;28;20052;-43
2022/04/20 01:45:14;;;;;;;11.98;5.30;;;7.90;88.20;;;;;;5013762;28;20042;-43
2022/04/20 01:47:41;;;;;;;8.73;5.53;;;7.80;88.00;;;;;;5011958;28;20056;-42
2022/04/20 01:50:08;;;;;;;8.43;5.47;;;7.80;87.90;;;;;;5012910;28;20053;-43
2022/04/20 01:52:35;;;;;;;11.45;6.05;;;7.80;88.80;;;;;;5010295;28;20057;-44
2022/04/20 01:55:03;;;;;;;9.80;6.18;;;7.70;88.20;;;;;;5011240;28;20053;-43
2022/04/20 01:57:30;;;;;;;11.32;5.80;;;7.80;88.90;;;;;;5012460;28;20056;-43
2022/04/20 01:59:57;;;;;;;11.85;6.13;;;7.70;89.30;;;;;;5011817;28;20056;-43
2022/04/20 02:02:34;;;;;;;8.13;5.65;;;7.70;89.00;;;;;;5012341;28;20050;-43
2022/04/20 02:05:03;;;;;;;11.73;5.53;;;7.70;89.10;;;;;;5013797;28;20065;-44
2022/04/20 02:07:30;;;;;;;12.63;5.97;;;7.60;89.60;;;;;;5011833;28;20104;-43
2022/04/20 02:09:57;;;;;;;10.02;5.90;;;7.60;89.50;;;;;;5011223;28;20042;-44
2022/04/20 02:12:25;;;;;;;10.68;6.25;;;7.60;89.70;;;;;;5012595;28;20060;-43
2022/04/20 02:14:51;;;;;;;12.43;5.85;;;7.60;90.10;;;;;;5013162;28;20046;-44
2022/04/20 02:17:18;;;;;;;10.32;6.57;;;7.50;90.10;;;;;;5005395;28;20045;-43
2022/04/20 02:19:45;;;;;;;9.60;6.03;;;7.60;90.20;;;;;;5012103;28;20042;-43
2022/04/20 02:22:11;;;;;;;12.38;7.20;;;7.50;90.30;;;;;;5013271;28;20041;-43
2022/04/20 02:24:38;;;;;;;10.20;6.25;;;7.50;90.40;;;;;;5005382;28;20068;-45
2022/04/20 02:27:05;;;;;;;11.98;6.07;;;7.50;90.50;;;;;;5006055;28;20053;-45
2022/04/20 02:29:33;;;;;;;12.65;6.57;;;7.50;90.30;;;;;;5012859;28;20072;-45
2022/04/20 02:32:00;;;;;;;13.27;6.57;;;7.40;90.30;;;;;;5012241;28;20108;-44
2022/04/20 02:34:27;;;;;;;9.60;6.30;;;7.40;90.50;;;;;;5011685;28;20049;-45
2022/04/20 02:36:53;;;;;;;8.27;6.13;;;7.40;90.60;;;;;;5012749;28;20049;-43
2022/04/20 02:39:20;;;;;;;11.38;6.13;;;7.40;90.50;;;;;;5011918;28;20050;-42
2022/04/20 02:41:47;;;;;;;7.53;5.10;;;7.40;90.50;;;;;;5011630;28;20498;-43
2022/04/20 02:44:14;;;;;;;14.75;6.20;;;7.40;90.30;;;;;;5006869;28;20046;-43
2022/04/20 02:46:43;;;;;;;7.82;5.60;;;7.40;90.30;;;;;;5009032;28;20046;-43
2022/04/20 02:49:09;;;;;;;10.80;6.07;;;7.40;90.40;;;;;;5010447;28;20046;-43
2022/04/20 02:51:36;;;;;;;12.32;6.78;;;7.30;90.30;;;;;;5007043;28;20050;-43
2022/04/20 02:54:03;;;;;;;9.27;5.85;;;7.30;90.40;;;;;;5012637;28;20410;-43
2022/04/20 02:56:29;;;;;;;8.63;6.22;;;7.30;90.40;;;;;;5012755;28;20060;-44
2022/04/20 02:58:56;;;;;;;9.93;6.15;;;7.30;90.60;;;;;;5004759;28;20050;-44
2022/04/20 03:01:23;;;;;;;12.32;6.07;;;7.20;90.70;;;;;;5011190;28;20383;-44
2022/04/20 03:03:51;;;;;;;11.38;6.53;;;7.20;90.70;;;;;;5012010;28;20046;-44
2022/04/20 03:06:18;;;;;;;8.40;6.20;;;7.20;90.80;;;;;;5012208;28;20061;-44
2022/04/20 03:08:46;;;;;;;8.80;5.30;;;7.20;90.70;;;;;;5012047;28;20797;-44
2022/04/20 03:11:13;;;;;;;11.70;6.50;;;7.10;90.80;;;;;;5011472;28;20050;-44
2022/04/20 03:13:39;;;;;;;13.77;6.90;;;7.10;90.70;;;;;;5011534;28;20053;-45
2022/04/20 03:16:06;;;;;;;8.60;5.68;;;7.10;90.80;;;;;;5010778;28;20076;-44
2022/04/20 03:18:33;;;;;;;9.93;5.70;;;7.10;90.90;;;;;;5008652;28;20080;-44
2022/04/20 03:21:01;;;;;;;12.20;6.68;;;7.10;90.90;;;;;;5003048;28;20050;-44
2022/04/20 03:23:28;;;;;;;9.55;5.63;;;7.00;90.90;;;;;;5011614;28;20119;-44
2022/04/20 03:25:55;;;;;;;13.88;5.88;;;7.00;90.80;;;;;;5010414;28;20056;-44
2022/04/20 03:28:21;;;;;;;10.82;5.95;;;7.00;90.70;;;;;;5005371;28;20824;-44
2022/04/20 03:30:48;;;;;;;10.13;5.60;;;7.00;90.60;;;;;;5009213;28;20129;-43
2022/04/20 03:33:15;;;;;;;8.48;5.70;;;7.00;90.60;;;;;;5011302;28;20049;-43
2022/04/20 03:35:42;;;;;;;10.30;5.75;;;6.90;90.30;;;;;;5009786;28;20053;-43
2022/04/20 03:38:10;;;;;;;8.10;5.70;;;6.90;90.40;;;;;;5009584;28;20096;-42
2022/04/20 03:40:37;;;;;;;7.20;5.60;;;6.90;90.30;;;;;;5005775;28;20077;-43
2022/04/20 03:43:04;;;;;;;7.70;5.90;;;6.90;90.30;;;;;;5007611;28;20058;-43
2022/04/20 03:45:30;;;;;;;9.90;5.28;;;6.90;90.20;;;;;;5004125;28;20050;-43
2022/04/20 03:47:57;;;;;;;10.00;5.43;;;6.80;90.20;;;;;;5011695;28;20054;-44
2022/04/20 03:50:24;;;;;;;7.35;4.88;;;6.80;90.20;;;;;;4998488;28;20056;-43
2022/04/20 03:52:50;;;;;;;11.20;5.45;;;6.80;90.10;;;;;;5005236;28;20129;-44
2022/04/20 03:55:18;;;;;;;10.95;6.00;;;6.70;90.30;;;;;;5009030;28;20054;-43
2022/04/20 03:57:45;;;;;;;13.77;6.55;;;6.70;90.40;;;;;;5003169;28;20057;-43
2022/04/20 04:00:13;;;;;;;11.60;6.32;;;6.70;90.50;;;;;;5010652;28;20406;-43
2022/04/20 04:02:39;;;;;;;6.75;5.38;;;6.70;90.60;;;;;;5008727;28;20057;-44
2022/04/20 04:05:07;;;;;;;10.45;5.43;;;6.60;90.60;;;;;;5011765;28;20475;-43
2022/04/20 04:07:37;;;;;;;8.63;5.93;;;6.60;90.70;;;;;;5010146;28;20053;-44
2022/04/20 04:10:06;;;;;;;12.68;6.57;;;6.60;90.90;;;;;;5008636;28;20046;-43
2022/04/20 04:12:34;;;;;;;11.70;5.40;;;6.60;91.30;;;;;;5011222;28;20108;-44
2022/04/20 04:15:01;;;;;;;12.50;6.95;;;6.50;91.50;;;;;;5011941;28;20100;-44
2022/04/20 04:17:27;;;;;;;11.40;7.03;;;6.50;91.80;;;;;;5003390;28;20046;-44
2022/04/20 04:19:55;;;;;;;8.63;6.38;;;6.40;92.00;;;;;;5011905;28;20046;-44
2022/04/20 04:22:22;;;;;;;11.88;6.22;;;6.40;92.20;;;;;;5010477;28;20054;-44
2022/04/20 04:24:49;;;;;;;9.13;6.00;;;6.40;92.40;;;;;;5000638;28;20125;-44
2022/04/20 04:27:16;;;;;;;11.38;6.13;;;6.30;92.40;;;;;;5009325;28;20050;-44
2022/04/20 04:29:44;;;;;;;11.10;6.45;;;6.30;92.50;;;;;;5009699;28;20060;-44
2022/04/20 04:32:12;;;;;;;10.48;6.32;;;6.20;92.80;;;;;;5010737;28;20054;-44
2022/04/20 04:34:39;;;;;;;13.20;6.60;;;6.20;92.80;;;;;;5010518;28;20453;-43
2022/04/20 04:37:06;;;;;;;11.82;6.80;;;6.20;93.00;;;;;;5008262;28;20058;-44
2022/04/20 04:39:33;;;;;;;11.70;6.75;;;6.10;93.10;;;;;;5003477;28;20491;-43
2022/04/20 04:42:02;;;;;;;7.28;5.68;;;6.10;93.20;;;;;;5013181;28;20052;-44
2022/04/20 04:44:29;;;;;;;9.52;6.00;;;6.00;93.20;;;;;;5013881;28;20181;-44
2022/04/20 04:49:41;;;;;;;10.18;6.00;;;6.10;93.40;;;;;;5007172;28;20499;-44
2022/04/20 04:52:11;;;;;;;10.43;6.22;;;6.00;93.40;;;;;;5010801;28;20073;-44
2022/04/20 04:54:38;;;;;;;10.38;6.90;;;6.00;93.50;;;;;;5010466;28;20108;-45
2022/04/20 04:57:06;;;;;;;12.32;6.97;;;6.00;93.80;;;;;;5014799;28;20490;-44
2022/04/20 04:59:33;;;;;;;12.40;6.85;;;6.00;93.80;;;;;;5015100;28;20050;-45
2022/04/20 05:02:01;;;;;;;15.60;7.80;;;6.00;94.00;;;;;;5014721;28;20045;-44
2022/04/20 05:04:27;;;;;;;11.90;7.00;;;6.00;94.20;;;;;;5014577;28;20060;-44
2022/04/20 05:06:54;;;;;;;14.38;6.90;;;6.00;94.40;;;;;;5006982;28;20409;-45
2022/04/20 05:09:21;;;;;;;10.45;6.30;;;6.00;94.60;;;;;;5014574;28;20076;-44
2022/04/20 05:11:48;;;;;;;18.05;7.05;;;6.00;94.60;;;;;;5008701;28;20056;-44
2022/04/20 05:14:15;;;;;;;11.70;7.10;;;6.00;94.80;;;;;;5012128;28;20077;-45
2022/04/20 05:16:42;;;;;;;10.75;6.95;;;6.00;95.00;;;;;;5014612;28;20049;-44
2022/04/20 05:19:10;;;;;;;11.40;6.80;;;6.00;95.40;;;;;;5013504;28;20501;-44
2022/04/20 05:21:37;;;;;;;12.52;6.93;;;6.00;95.30;;;;;;5014070;28;20050;-43
2022/04/20 05:24:04;;;;;;;12.85;6.68;;;6.00;95.30;;;;;;5012430;28;20140;-43
2022/04/20 05:26:31;;;;;;;9.93;7.18;;;6.00;95.40;;;;;;5010597;28;20056;-44
2022/04/20 05:28:57;;;;;;;13.65;6.85;;;6.10;95.60;;;;;;5013861;28;21465;-43
2022/04/20 05:31:24;;;;;;;13.35;7.50;;;6.10;95.80;;;;;;5004432;28;20060;-43
2022/04/20 05:33:51;;;;;;;10.88;6.68;;;6.10;95.60;;;;;;5013765;28;20316;-43
2022/04/20 05:36:19;;;;;;;11.80;6.00;;;6.10;95.90;;;;;;5005803;28;20073;-43
2022/04/20 05:41:42;;;;;;;12.65;6.15;;;6.30;95.80;;;;;;5011173;28;20045;-43
2022/04/20 05:44:10;;;;;;;13.40;6.68;;;6.30;95.50;;;;;;5013673;28;20058;-43
2022/04/20 05:46:36;;;;;;;11.25;6.22;;;6.40;95.60;;;;;;5013447;28;20069;-44
2022/04/20 05:49:03;;;;;;;11.40;6.32;;;6.50;95.60;;;;;;5006218;28;20050;-44
2022/04/20 05:51:32;;;;;;;9.50;6.47;;;6.60;95.60;;;;;;5012665;28;20566;-43
2022/04/20 05:53:58;;;;;;;13.15;6.93;;;6.60;95.70;;;;;;5013071;28;20512;-44
2022/04/20 05:56:25;;;;;;;9.05;6.20;;;6.70;95.70;;;;;;5007011;28;20086;-43
2022/04/20 05:58:52;;;;;;;9.07;6.35;;;6.80;95.70;;;;;;5011976;28;20141;-43
2022/04/20 06:01:19;;;;;;;11.43;6.15;;;6.90;95.70;;;;;;5010023;28;20049;-43
2022/04/20 06:03:46;;;;;;;13.15;5.80;;;7.00;95.50;;;;;;5009234;28;20128;-43
2022/04/20 06:06:13;;;;;;;11.13;6.50;;;7.20;95.30;;;;;;5013847;28;20077;-43
2022/04/20 06:08:41;;;;;;;11.57;6.32;;;7.30;95.30;;;;;;5008134;28;20054;-44
2022/04/20 06:11:08;;;;;;;10.80;5.80;;;7.40;95.20;;;;;;5010518;28;20081;-44
2022/04/20 06:13:35;;;;;;;8.88;5.57;;;7.60;95.10;;;;;;5013774;28;20125;-43
2022/04/20 06:16:04;;;;;;;10.13;6.72;;;7.70;94.90;;;;;;5005883;28;20097;-43
2022/04/20 06:18:31;;;;;;;10.07;5.75;;;7.80;94.60;;;;;;5013499;28;20498;-43
2022/04/20 06:20:58;;;;;;;8.20;5.57;;;7.90;94.50;;;;;;5012370;28;20055;-43
2022/04/20 06:23:25;;;;;;;13.02;5.63;;;8.00;94.30;;;;;;5005646;28;20052;-43
2022/04/20 06:25:55;;;;;;;10.98;5.40;;;8.20;94.10;;;;;;5013654;28;20049;-44
2022/04/20 06:28:24;;;;;;;10.05;5.50;;;8.30;93.80;;;;;;5013189;28;20502;-43
2022/04/20 06:30:51;;;;;;;9.23;5.10;;;8.40;93.50;;;;;;5005782;28;20134;-43
2022/04/20 06:33:18;;;;;;;10.63;5.22;;;8.60;93.10;;;;;;5013198;28;20057;-43
2022/04/20 06:35:46;;;;;;;10.05;5.57;;;8.70;92.80;;;;;;5013246;28;20059;-43
2022/04/20 06:38:13;;;;;;;7.22;5.20;;;8.80;92.40;;;;;;5012850;28;20128;-43
2022/04/20 06:40:39;;;;;;;7.35;4.68;;;8.90;92.10;;;;;;5013694;28;20130;-44
2022/04/20 06:43:07;;;;;;;10.63;4.68;;;9.10;91.60;;;;;;5012990;28;20054;-44
2022/04/20 06:45:34;;;;;;;7.03;4.20;;;9.20;91.40;;;;;;5012824;28;20056;-44
2022/04/20 06:48:01;;;;;;;8.82;4.30;;;9.30;91.10;;;;;;5012128;28;20056;-44
2022/04/20 06:50:28;;;;;;;9.48;4.28;;;9.40;90.80;;;;;;5012707;28;20529;-44
2022/04/20 06:58:35;;;;;;;8.63;4.15;;;9.90;89.10;;;;;;5004892;28;20490;-44
2022/04/20 07:01:04;;;;;;;6.88;3.97;;;10.00;89.10;;;;;;5003985;28;20061;-44
2022/04/20 07:03:31;;;;;;;10.13;4.10;;;10.20;88.00;;;;;;5012878;28;20130;-44
2022/04/20 07:05:57;;;;;;;11.40;4.43;;;10.30;87.20;;;;;;5012955;28;20056;-44
2022/04/20 07:08:24;;;;;;;6.20;4.43;;;10.50;86.60;;;;;;5011957;28;20041;-44
2022/04/20 07:10:51;;;;;;;6.97;4.10;;;10.60;85.30;;;;;;5012656;28;20056;-44
2022/04/20 07:13:17;;;;;;;6.45;4.22;;;10.70;85.00;;;;;;5004704;28;20402;-44
2022/04/20 07:15:46;;;;;;;8.40;4.45;;;10.80;84.40;;;;;;5012770;28;20048;-44
2022/04/20 07:18:12;;;;;;;7.40;4.43;;;10.90;83.20;;;;;;5012738;28;20109;-43
2022/04/20 07:20:39;;;;;;;8.18;4.57;;;11.00;83.00;;;;;;5012803;28;20042;-43
2022/04/20 07:23:06;;;;;;;7.53;4.00;;;11.10;82.50;;;;;;5011608;28;20057;-43
2022/04/20 07:25:33;;;;;;;8.82;4.03;;;11.20;82.60;;;;;;5011027;28;20057;-43
2022/04/20 07:27:59;;;;;;;9.10;4.53;;;11.30;81.90;;;;;;5012633;28;20184;-43
2022/04/20 07:30:26;;;;;;;7.35;3.72;;;11.40;81.40;;;;;;5012400;28;20137;-43
2022/04/20 07:32:54;;;;;;;10.73;4.20;;;11.50;80.70;;;;;;5008616;28;20050;-43
2022/04/20 07:35:21;;;;;;;9.70;4.20;;;11.60;80.10;;;;;;5007098;28;20075;-44
2022/04/20 07:37:49;;;;;;;8.52;3.60;;;11.70;79.80;;;;;;5012418;28;20453;-43
2022/04/20 07:40:15;;;;;;;6.75;4.47;;;11.80;79.60;;;;;;5012197;28;20125;-43
2022/04/20 07:42:42;;;;;;;7.28;4.15;;;12.00;78.80;;;;;;5012678;28;20237;-43
2022/04/20 07:45:10;;;;;;;7.97;4.40;;;12.00;78.40;;;;;;5012129;28;20482;-46
2022/04/20 07:47:37;;;;;;;11.65;4.45;;;12.10;77.40;;;;;;5012313;28;20054;-44
2022/04/20 07:50:23;;;;;;;11.57;4.07;;;12.20;77.10;;;;;;5012531;28;20129;-44
2022/04/20 07:52:50;;;;;;;7.00;4.50;;;12.30;76.50;;;;;;5012028;28;20060;-44
2022/04/20 07:55:19;;;;;;;9.73;4.15;;;12.50;76.20;;;;;;5012463;28;20042;-43
2022/04/20 07:57:45;;;;;;;9.90;4.72;;;12.60;75.50;;;;;;5010747;28;20054;-43
2022/04/20 08:00:13;;;;;;;4.85;3.47;;;12.80;75.10;;;;;;5012228;28;20046;-43
2022/04/20 08:02:40;;;;;;;10.23;4.05;;;12.80;74.00;;;;;;5004542;28;20092;-43
2022/04/20 08:05:08;;;;;;;6.20;3.72;;;13.00;74.70;;;;;;5011363;28;20394;-43
2022/04/20 08:07:35;;;;;;;8.95;3.67;;;13.20;73.50;;;;;;5012051;28;20061;-43
2022/04/20 08:10:03;;;;;;;6.35;3.30;;;13.20;72.50;;;;;;5011059;28;20054;-43
2022/04/20 08:12:35;;;;;;;5.30;3.00;;;13.30;71.70;;;;;;5014162;28;20122;-43
2022/04/20 08:15:01;;;;;;;7.15;2.88;;;13.40;69.40;;;;;;5004173;28;20407;-44
2022/04/20 08:17:28;;;;;;;5.90;3.33;;;13.40;69.50;;;;;;5011952;28;20042;-44
2022/04/20 08:19:55;;;;;;;6.90;3.08;;;13.60;68.20;;;;;;5014519;28;20490;-45
2022/04/20 08:22:24;;;;;;;6.05;3.03;;;13.80;67.50;;;;;;5015606;28;20046;-44
2022/04/20 08:24:51;;;;;;;4.75;3.03;;;14.00;66.60;;;;;;5015496;28;20498;-44
2022/04/20 08:27:19;;;;;;;6.63;2.95;;;14.10;66.50;;;;;;5014653;28;20161;-43
2022/04/20 08:29:47;;;;;;;5.35;2.80;;;14.20;65.40;;;;;;5007157;28;20482;-44
2022/04/20 08:32:14;;;;;;;4.53;2.53;;;14.40;65.30;;;;;;5015766;28;20054;-44
2022/04/20 08:34:42;;;;;;;4.78;2.90;;;14.50;64.60;;;;;;5014676;28;20133;-43
2022/04/20 08:37:09;;;;;;;5.25;2.90;;;14.60;63.50;;;;;;5007015;28;20052;-44
2022/04/20 08:39:37;;;;;;;4.22;2.90;;;14.60;63.20;;;;;;5015546;28;20046;-45
2022/04/20 08:42:04;;;;;;;6.47;2.70;;;14.60;62.40;;;;;;5015201;28;20460;-44
2022/04/20 08:44:31;;;;;;;5.40;2.90;;;14.70;62.70;;;;;;5015650;28;20056;-43
2022/04/20 08:47:00;;;;;;;4.30;2.88;;;14.70;61.60;;;;;;5014397;28;20104;-44
2022/04/20 08:49:27;;;;;;;7.57;2.80;;;14.80;61.30;;;;;;5015554;28;20482;-44
2022/04/20 08:54:39;;;;;;;7.75;2.97;;;14.90;61.20;;;;;;5015168;28;20050;-43
2022/04/20 08:57:19;;;;;;;4.75;2.50;;;15.00;60.90;;;;;;5013901;28;20164;-44
2022/04/20 08:59:47;;;;;;;4.90;2.83;;;15.20;60.30;;;;;;5015037;28;20050;-45
2022/04/20 09:02:13;;;;;;;5.20;2.33;;;15.40;58.20;;;;;;5007501;28;20506;-45
2022/04/20 09:04:40;;;;;;;8.02;2.92;;;15.50;57.40;;;;;;5014113;28;20056;-45
2022/04/20 09:07:08;;;;;;;5.65;2.50;;;15.50;58.00;;;;;;5006112;28;20826;-44
2022/04/20 09:09:35;;;;;;;5.13;2.10;;;15.70;57.50;;;;;;5015155;28;20092;-44
2022/04/20 09:12:03;;;;;;;5.28;2.22;;;15.80;55.20;;;;;;5007060;28;20050;-44
2022/04/20 09:14:30;;;;;;;5.57;2.03;;;16.00;55.60;;;;;;5015032;28;20060;-44
2022/04/20 09:16:57;;;;;;;2.72;1.95;;;16.20;55.10;;;;;;5013769;28;20116;-44
2022/04/20 09:19:25;;;;;;;5.72;2.30;;;16.30;53.10;;;;;;5014777;28;20429;-44
2022/04/20 09:21:51;;;;;;;3.45;1.92;;;16.30;53.30;;;;;;5014126;28;20050;-44
2022/04/20 09:24:18;;;;;;;3.13;1.92;;;16.30;51.60;;;;;;5004706;28;20052;-44
2022/04/20 09:26:52;;;;;;;3.33;2.17;;;16.40;51.80;;;;;;5013472;28;20509;-44
2022/04/20 09:29:21;;;;;;;4.68;2.10;;;16.50;51.30;;;;;;5005918;28;20056;-45
2022/04/20 09:31:48;;;;;;;4.60;1.85;;;16.60;51.50;;;;;;5007659;28;20082;-45
2022/04/20 09:34:33;;;;;;;4.43;1.70;;;16.80;52.30;;;;;;5006151;28;20536;-44
2022/04/20 09:37:09;;;;;;;3.10;1.52;;;17.00;50.60;;;;;;5014578;28;20054;-44
2022/04/20 09:39:37;;;;;;;4.05;1.63;;;17.10;49.20;;;;;;5013806;28;20058;-44
2022/04/20 09:42:05;;;;;;;4.97;1.65;;;17.10;47.60;;;;;;5006572;28;20042;-45
2022/04/20 09:44:35;;;;;;;4.45;1.70;;;17.10;47.90;;;;;;5014313;28;20112;-44
2022/04/20 09:50:07;;;;;;;5.97;1.58;;;17.10;47.10;;;;;;5009347;28;20483;-44
2022/04/20 09:52:37;;;;;;;7.63;1.63;;;17.20;45.80;;;;;;5009685;28;20132;-43
2022/04/20 09:55:06;;;;;;;3.72;1.70;;;17.10;46.10;;;;;;5013916;28;20477;-45
2022/04/20 09:57:33;;;;;;;5.85;1.90;;;16.80;44.80;;;;;;5012625;28;20061;-44
2022/04/20 10:00:03;;;;;;;3.15;1.60;;;16.80;45.40;;;;;;5014132;28;20048;-45
2022/04/20 10:02:30;;;;;;;5.70;1.60;;;16.80;45.20;;;;;;4997307;28;20058;-44
2022/04/20 10:04:57;;;;;;;3.20;1.67;;;16.90;45.50;;;;;;5006844;28;20065;-44
2022/04/20 10:07:24;;;;;;;3.60;1.60;;;17.00;44.40;;;;;;5012695;28;20508;-44
2022/04/20 10:09:50;;;;;;;3.42;1.58;;;17.00;44.00;;;;;;5013814;28;20056;-44
2022/04/20 10:12:18;;;;;;;7.63;1.52;;;16.90;43.80;;;;;;5012251;28;20129;-45
2022/04/20 10:17:37;;;;;;;2.65;1.65;;;17.20;43.00;;;;;;5012504;28;20132;-45
2022/04/20 10:20:04;;;;;;;4.88;1.65;;;17.20;44.20;;;;;;5013690;28;20050;-45
2022/04/20 10:22:31;;;;;;;3.90;1.38;;;17.40;44.40;;;;;;5013203;28;20053;-45
2022/04/20 10:24:58;;;;;;;2.63;1.75;;;17.60;44.30;;;;;;5013606;28;20123;-44
2022/04/20 10:27:30;;;;;;;4.80;1.75;;;17.70;43.70;;;;;;5013483;28;20050;-45
2022/04/20 10:29:58;;;;;;;3.42;1.60;;;17.90;43.00;;;;;;5013706;28;20121;-44
2022/04/20 10:32:25;;;;;;;5.40;1.90;;;17.80;42.50;;;;;;5004362;28;20052;-44
2022/04/20 10:34:53;;;;;;;5.30;1.85;;;17.80;42.70;;;;;;5011841;28;20471;-44
2022/04/20 10:37:25;;;;;;;2.92;2.00;;;17.90;43.50;;;;;;5013113;28;20045;-44
2022/04/20 10:39:53;;;;;;;8.15;1.90;;;18.00;43.10;;;;;;5005065;28;20449;-44
2022/04/20 10:42:21;;;;;;;3.22;2.10;;;18.00;43.30;;;;;;5012056;28;20433;-44
2022/04/20 10:45:06;;;;;;;6.22;1.80;;;18.10;43.50;;;;;;5012328;28;20053;-44
2022/04/20 10:47:33;;;;;;;5.38;1.73;;;18.20;44.50;;;;;;5010404;28;20049;-44
2022/04/20 10:50:20;;;;;;;10.07;2.20;;;18.40;43.80;;;;;;5006260;28;20501;-45
2022/04/20 10:52:50;;;;;;;3.55;1.85;;;18.40;43.40;;;;;;5009400;28;20042;-44
2022/04/20 10:55:17;;;;;;;4.20;2.20;;;18.50;44.10;;;;;;5013210;28;20073;-44
2022/04/20 10:57:45;;;;;;;2.55;2.00;;;18.60;44.10;;;;;;5013025;28;20469;-45
2022/04/20 11:00:28;;;;;;;2.58;1.50;;;18.70;43.90;;;;;;5011922;28;20050;-43
2022/04/20 11:02:55;;;;;;;3.47;1.80;;;18.90;44.40;;;;;;5004722;28;20079;-45
2022/04/20 11:05:24;;;;;;;6.68;2.00;;;19.00;43.30;;;;;;5013053;28;20049;-44
2022/04/20 11:08:07;;;;;;;6.55;1.90;;;18.80;42.60;;;;;;5005090;28;20139;-44
2022/04/20 11:10:34;;;;;;;4.68;2.03;;;18.70;41.90;;;;;;5011852;28;20085;-46
2022/04/20 11:19:07;;;;;;;4.25;1.60;;;18.50;42.80;;;;;;5012851;28;20050;-45
2022/04/20 11:21:36;;;;;;;3.03;1.67;;;18.50;42.90;;;;;;5012366;28;20426;-45
2022/04/20 11:24:05;;;;;;;3.58;1.73;;;18.70;43.10;;;;;;5002690;28;20050;-45
2022/04/20 11:26:34;;;;;;;3.75;1.90;;;18.90;43.70;;;;;;5016200;28;20115;-45
2022/04/20 11:29:03;;;;;;;6.10;1.85;;;19.10;42.60;;;;;;5010547;28;20085;-45
2022/04/20 11:31:36;;;;;;;6.10;1.77;;;18.90;43.10;;;;;;5009389;28;20053;-45
2022/04/20 11:34:03;;;;;;;4.93;1.80;;;19.10;43.10;;;;;;5017197;28;20054;-45
2022/04/20 11:36:29;;;;;;;3.88;1.85;;;19.30;44.30;;;;;;5011735;28;20077;-46
2022/04/20 11:38:58;;;;;;;4.18;2.00;;;19.40;42.40;;;;;;5012232;28;20077;-45
2022/04/20 11:41:25;;;;;;;3.03;1.95;;;19.50;41.70;;;;;;5016564;28;20080;-45
2022/04/20 11:43:51;;;;;;;2.65;1.80;;;19.40;41.60;;;;;;5004597;28;20389;-45
2022/04/20 11:46:20;;;;;;;4.05;1.73;;;19.30;41.50;;;;;;5015214;28;20057;-45
2022/04/20 11:48:54;;;;;;;4.10;1.73;;;19.40;42.00;;;;;;5009028;28;20061;-45
2022/04/20 11:51:23;;;;;;;7.05;1.52;;;19.60;41.70;;;;;;5014650;28;20109;-45
2022/04/20 11:53:49;;;;;;;7.22;1.65;;;19.80;41.30;;;;;;5017103;28;20478;-45
2022/04/20 11:56:17;;;;;;;4.93;2.33;;;19.90;41.10;;;;;;5016265;28;20081;-45
2022/04/20 11:58:51;;;;;;;6.30;1.75;;;20.00;40.80;;;;;;5017338;28;20057;-45
2022/04/20 12:01:19;;;;;;;2.85;1.40;;;20.10;38.90;;;;;;5006319;28;20054;-45
2022/04/20 12:03:50;;;;;;;2.85;1.60;;;20.10;40.50;;;;;;5010630;28;20518;-45
2022/04/20 12:06:16;;;;;;;4.60;1.60;;;20.20;40.00;;;;;;5016671;28;20057;-45
2022/04/20 12:08:43;;;;;;;1.67;1.48;;;20.20;40.40;;;;;;5003914;28;20053;-45
2022/04/20 12:11:11;;;;;;;2.50;1.23;;;20.30;39.80;;;;;;5007791;28;20486;-46
2022/04/20 12:13:39;;;;;;;2.65;1.30;;;20.40;40.30;;;;;;5017002;28;20046;-46
2022/04/20 12:16:07;;;;;;;3.45;1.60;;;20.50;38.70;;;;;;5015070;28;20561;-45
2022/04/20 12:18:36;;;;;;;2.85;1.63;;;20.30;38.50;;;;;;5015159;28;20104;-44
2022/04/20 12:21:04;;;;;;;6.20;1.55;;;20.30;39.00;;;;;;5008648;28;20088;-44
2022/04/20 12:23:34;;;;;;;2.80;1.58;;;20.50;40.00;;;;;;5013324;28;20054;-44
2022/04/20 12:26:04;;;;;;;4.03;1.50;;;20.60;39.60;;;;;;5012586;28;20046;-45
2022/04/20 12:28:44;;;;;;;3.47;1.30;;;20.70;38.60;;;;;;5014063;28;20057;-45
2022/04/20 12:31:12;;;;;;;2.58;1.20;;;20.70;36.70;;;;;;5013702;28;20056;-44
2022/04/20 12:33:39;;;;;;;2.92;1.13;;;20.70;38.00;;;;;;5012838;28;20056;-45
2022/04/20 12:36:08;;;;;;;2.63;1.52;;;20.70;39.50;;;;;;5011502;28;20054;-45
2022/04/20 12:38:45;;;;;;;3.92;1.65;;;20.70;37.40;;;;;;5014213;28;20092;-44
2022/04/20 12:41:41;;;;;;;6.68;1.45;;;20.70;37.50;;;;;;5011466;28;20049;-45
2022/04/20 12:44:38;;;;;;;4.13;1.17;;;20.90;37.70;;;;;;5018224;28;20054;-44
2022/04/20 12:47:32;;;;;;;2.95;1.02;;;20.90;36.70;;;;;;5012704;28;20057;-46
2022/04/20 12:50:16;;;;;;;2.28;1.30;;;21.00;38.70;;;;;;5011039;28;20490;-45
2022/04/20 12:52:50;;;;;;;3.50;1.25;;;21.10;36.30;;;;;;5011732;28;20133;-45
2022/04/20 12:55:17;;;;;;;4.40;1.20;;;21.20;37.40;;;;;;5013432;28;20061;-46
2022/04/20 13:03:31;;;;;;;3.38;1.50;;;21.50;37.20;;;;;;5011550;28;20054;-44
2022/04/20 13:05:58;;;;;;;5.10;1.30;;;21.60;36.40;;;;;;5010504;28;20054;-43
2022/04/20 13:08:26;;;;;;;8.05;1.55;;;21.50;37.60;;;;;;5014276;28;20041;-44
2022/04/20 13:10:52;;;;;;;7.43;1.50;;;21.50;37.20;;;;;;5013049;28;20052;-44
2022/04/20 13:13:23;;;;;;;1.88;1.45;;;21.50;37.10;;;;;;5008183;28;20068;-44
2022/04/20 13:15:51;;;;;;;2.30;1.27;;;21.50;36.70;;;;;;5014848;28;20038;-43
2022/04/20 13:18:18;;;;;;;6.47;1.33;;;21.50;36.40;;;;;;5008549;28;20045;-44
2022/04/20 13:20:45;;;;;;;5.32;1.55;;;21.30;36.30;;;;;;5018922;28;20058;-44
2022/04/20 13:23:12;;;;;;;3.28;1.85;;;21.30;37.10;;;;;;5015844;28;20111;-44
2022/04/20 13:28:25;;;;;;;10.13;1.60;;;21.40;36.50;;;;;;5014238;28;20045;-43